Kouwamaru — JG4745 — position and weather

sailwx.info

Track history (hours):
 
Tides and Currents Weather Stations Pressure Air Temp Water Temp Dewpoint Dewpoint Depression Visibility Wind Speed Wind Dir Waves Ship Positions

Kouwamaru

Last reported at 2018-Apr-23 23:02 UTC. Time now 2018-Jun-25 13:55 UTC.
Position N 33°38' E 132°21'.
Warning: this ship's position is months out of date.

Length 54 m.

Type: Ship. MMSI: 431100411.

Date/timePositionNaut miles runAvg speedWind from/ knotsBaromVisibWave heightAir tempDewpointWater temp
2018-Apr-23 23:02N 33°38' E 132°21'2 9.9
2018-Apr-23 22:50N 33°37' E 132°19'22 0.9
2018-Apr-22 22:06N 33°49' E 132°41'1 8.9
2018-Apr-22 22:00N 33°48' E 132°40'3 0.2
2018-Apr-22 07:19N 33°46' E 132°41'5210.1
2018-Apr-22 02:09N 33°20' E 131°46'4 9.7
2018-Apr-22 01:45N 33°18' E 131°42'3 0.8
2018-Apr-21 22:20N 33°16' E 131°40'2 6.0
2018-Apr-21 21:58N 33°18' E 131°41'5 9.7
2018-Apr-21 21:30N 33°21' E 131°45'611.1
2018-Apr-21 21:00N 33°24' E 131°51'710.9
2018-Apr-21 20:23N 33°28' E 131°57'4211.0
2018-Apr-21 16:35N 33°54' E 132°37'4 9.3
2018-Apr-21 16:08N 33°56' E 132°41'1 8.4
2018-Apr-21 15:59N 33°57' E 132°42'93 9.3
2018-Apr-21 05:59N 34°28' E 134°28'510.5
2018-Apr-21 05:28N 34°30' E 134°34'510.7
2018-Apr-21 05:00N 34°32' E 134°40'611.1
2018-Apr-21 04:29N 34°34' E 134°47'611.8
2018-Apr-21 04:00N 34°36' E 134°53'611.8
2018-Apr-21 03:30N 34°38' E 134°60'611.2
2018-Apr-21 03:00N 34°37' E 135°06'611.2
2018-Apr-21 02:30N 34°37' E 135°13'510.9
2018-Apr-21 02:00N 34°39' E 135°19'5 9.9
2018-Apr-21 01:30N 34°39' E 135°26'1 2.2
2018-Apr-21 00:59N 34°40' E 135°27'0 0.0
2018-Apr-21 00:29N 34°40' E 135°27'0 0.0
2018-Apr-20 23:59N 34°40' E 135°27'0 0.0
2018-Apr-20 23:29N 34°40' E 135°27'0 0.0
2018-Apr-20 22:59N 34°40' E 135°27'1 1.1
2018-Apr-20 22:30N 34°40' E 135°26'4 7.6
2018-Apr-20 22:00N 34°39' E 135°22'0 0.3
2018-Apr-20 21:30N 34°39' E 135°21'0 0.0
2018-Apr-20 21:00N 34°39' E 135°21'0 0.0
2018-Apr-20 20:30N 34°39' E 135°21'0 0.0
2018-Apr-20 20:00N 34°39' E 135°21'0 0.0
2018-Apr-20 19:30N 34°39' E 135°21'0 0.0
2018-Apr-20 19:00N 34°39' E 135°21'0 0.0
2018-Apr-20 18:30N 34°39' E 135°21'0 0.0
2018-Apr-20 18:00N 34°39' E 135°21'0 0.0
2018-Apr-20 17:30N 34°39' E 135°21'0 0.0
2018-Apr-20 17:00N 34°39' E 135°21'1 2.0
2018-Apr-20 16:29N 34°38' E 135°21'510.0
2018-Apr-20 16:00N 34°34' E 135°18'510.1
2018-Apr-20 15:30N 34°30' E 135°14'510.9
2018-Apr-20 15:00N 34°26' E 135°10'510.9
2018-Apr-20 14:30N 34°21' E 135°06'510.9
2018-Apr-20 14:00N 34°16' E 135°03'510.9
2018-Apr-20 13:30N 34°11' E 135°03'610.8
2018-Apr-20 12:58N 34°05' E 135°03'610.7
2018-Apr-20 12:24N 33°59' E 135°03'227 8.5
2018-Apr-19 09:47N 35°01' E 139°28'4 8.5
2018-Apr-19 09:19N 35°03' E 139°32'3 9.5
2018-Apr-19 09:00N 35°05' E 139°35'510.3
2018-Apr-19 08:30N 35°07' E 139°41'5 9.8
2018-Apr-19 08:00N 35°11' E 139°45'4 8.5
2018-Apr-19 07:30N 35°15' E 139°46'4 8.8
2018-Apr-19 07:00N 35°19' E 139°43'5 8.6
2018-Apr-19 06:29N 35°23' E 139°42'4 8.7
2018-Apr-19 06:00N 35°26' E 139°46'5 9.1
2018-Apr-19 05:30N 35°29' E 139°51'5 9.4
2018-Apr-19 04:57N 35°31' E 139°56'5 9.8
2018-Apr-19 04:29N 35°33' E 140°01'3 0.9
2018-Apr-19 00:54N 35°32' E 140°05'3 7.7
2018-Apr-19 00:30N 35°35' E 140°05'1 2.4
2018-Apr-18 23:58N 35°36' E 140°06'0 0.0
2018-Apr-18 23:28N 35°36' E 140°06'0 0.0
2018-Apr-18 22:58N 35°36' E 140°06'0 0.0
2018-Apr-18 22:28N 35°36' E 140°06'0 0.0
2018-Apr-18 21:58N 35°36' E 140°06'0 0.0
2018-Apr-18 21:28N 35°36' E 140°06'0 0.0
2018-Apr-18 20:58N 35°36' E 140°06'0 0.0
2018-Apr-18 20:28N 35°36' E 140°06'0 0.0
2018-Apr-18 19:58N 35°36' E 140°06'0 0.0
2018-Apr-18 19:28N 35°36' E 140°06'0 0.0
2018-Apr-18 18:58N 35°36' E 140°06'0 0.0
2018-Apr-18 18:28N 35°36' E 140°06'0 0.0
2018-Apr-18 17:58N 35°36' E 140°06'0 0.0
2018-Apr-18 17:22N 35°36' E 140°06'0 0.0
2018-Apr-18 16:58N 35°36' E 140°06'0 0.0
2018-Apr-18 16:28N 35°36' E 140°06'0 0.0
2018-Apr-18 15:58N 35°36' E 140°06'0 0.0
2018-Apr-18 15:28N 35°36' E 140°06'0 0.0
2018-Apr-18 14:58N 35°36' E 140°06'0 0.0
2018-Apr-18 14:28N 35°36' E 140°06'0 0.0
2018-Apr-18 13:58N 35°36' E 140°06'0 0.0
2018-Apr-18 13:28N 35°36' E 140°06'0 0.0
2018-Apr-18 12:58N 35°36' E 140°06'0 0.0
2018-Apr-18 12:28N 35°36' E 140°06'0 0.0
2018-Apr-18 11:55N 35°36' E 140°06'0 0.0
2018-Apr-18 11:28N 35°36' E 140°06'0 0.0
2018-Apr-18 10:58N 35°36' E 140°06'0 0.0
2018-Apr-18 10:28N 35°36' E 140°06'0 0.0
2018-Apr-18 09:58N 35°36' E 140°06'0 0.0
2018-Apr-18 09:28N 35°36' E 140°06'0 0.0
2018-Apr-18 08:58N 35°36' E 140°06'0 0.0
2018-Apr-18 08:28N 35°36' E 140°06'0 0.0
2018-Apr-18 07:58N 35°36' E 140°06'0 0.0
2018-Apr-18 07:28N 35°36' E 140°06'0 0.0
2018-Apr-18 06:58N 35°36' E 140°06'0 0.0
2018-Apr-18 06:28N 35°36' E 140°06'0 0.0
2018-Apr-18 05:58N 35°36' E 140°06'0 0.0
2018-Apr-18 05:28N 35°36' E 140°06'0 0.0
2018-Apr-18 04:58N 35°36' E 140°06'0 0.0
2018-Apr-18 04:28N 35°36' E 140°06'0 0.0
2018-Apr-18 03:58N 35°36' E 140°06'0 0.0
2018-Apr-18 03:28N 35°36' E 140°06'1 2.6
2018-Apr-18 02:59N 35°35' E 140°05'7 9.5
2018-Apr-18 02:17N 35°30' E 140°00'1 2.1
2018-Apr-18 01:39N 35°29' E 140°01'0 0.0
2018-Apr-18 01:30N 35°29' E 140°01'0 0.0
2018-Apr-17 23:27N 35°29' E 140°01'3 6.5
2018-Apr-17 23:00N 35°30' E 139°58'2 3.3
2018-Apr-17 22:16N 35°29' E 139°55'0 0.0
2018-Apr-17 21:55N 35°29' E 139°55'0 0.0
2018-Apr-17 21:22N 35°29' E 139°55'0 0.0
2018-Apr-17 20:58N 35°29' E 139°55'0 0.1
2018-Apr-17 20:25N 35°29' E 139°55'0 0.1
2018-Apr-17 20:01N 35°29' E 139°55'0 0.0
2018-Apr-17 19:28N 35°29' E 139°55'0 0.0
2018-Apr-17 18:58N 35°29' E 139°55'0 0.0
2018-Apr-17 18:31N 35°29' E 139°55'0 0.0
2018-Apr-17 17:58N 35°29' E 139°55'0 0.0
2018-Apr-17 17:28N 35°29' E 139°55'0 0.0
2018-Apr-17 17:01N 35°29' E 139°55'0 0.0
2018-Apr-17 16:31N 35°29' E 139°55'2 4.1
2018-Apr-17 16:01N 35°29' E 139°52'5 9.6
2018-Apr-17 15:30N 35°25' E 139°48'5 9.3
2018-Apr-17 15:00N 35°21' E 139°45'4 8.8
2018-Apr-17 14:31N 35°17' E 139°46'4 8.5
2018-Apr-17 14:00N 35°13' E 139°47'4 8.9
2018-Apr-17 13:30N 35°08' E 139°45'6 9.7
2018-Apr-17 12:52N 35°04' E 139°40'239 8.0
2018-Apr-16 07:10N 33°57' E 135°02'210.6
2018-Apr-16 06:59N 33°59' E 135°02'510.7
2018-Apr-16 06:30N 34°04' E 135°02'610.9
2018-Apr-16 05:59N 34°09' E 135°03'511.0
2018-Apr-16 05:30N 34°15' E 135°03'611.4
2018-Apr-16 05:01N 34°20' E 135°05'611.1
2018-Apr-16 04:31N 34°24' E 135°09'510.8
2018-Apr-16 04:00N 34°28' E 135°13'510.3
2018-Apr-16 03:30N 34°32' E 135°18'510.5
2018-Apr-16 02:59N 34°36' E 135°22'3 6.7
2018-Apr-16 02:30N 34°34' E 135°25'0 0.0
2018-Apr-16 02:00N 34°34' E 135°25'0 0.0
2018-Apr-16 01:30N 34°34' E 135°25'0 0.0
2018-Apr-16 01:00N 34°34' E 135°25'0 0.0
2018-Apr-16 00:30N 34°34' E 135°25'0 0.0
2018-Apr-16 00:00N 34°34' E 135°25'0 0.0
2018-Apr-15 23:30N 34°34' E 135°25'0 0.5
2018-Apr-15 22:58N 34°34' E 135°25'0 0.7
2018-Apr-15 22:28N 34°35' E 135°25'1 3.0
2018-Apr-15 22:00N 34°35' E 135°24'5 9.3
2018-Apr-15 21:30N 34°31' E 135°24'0 0.2
2018-Apr-15 20:59N 34°31' E 135°24'0 0.0
2018-Apr-15 20:29N 34°31' E 135°24'0 0.0
2018-Apr-15 19:59N 34°31' E 135°24'0 0.0
2018-Apr-15 19:29N 34°31' E 135°24'0 0.0
2018-Apr-15 18:59N 34°31' E 135°24'0 0.0
2018-Apr-15 18:29N 34°31' E 135°24'0 0.0
2018-Apr-15 17:59N 34°31' E 135°24'0 0.0
2018-Apr-15 17:29N 34°31' E 135°24'0 0.0
2018-Apr-15 16:59N 34°31' E 135°24'0 0.0
2018-Apr-15 16:29N 34°31' E 135°24'0 0.0
2018-Apr-15 15:59N 34°31' E 135°24'0 0.0
2018-Apr-15 15:29N 34°31' E 135°24'0 0.0
2018-Apr-15 14:59N 34°31' E 135°24'0 0.0
2018-Apr-15 14:29N 34°31' E 135°24'0 0.0
2018-Apr-15 13:59N 34°31' E 135°24'0 0.0
2018-Apr-15 13:29N 34°31' E 135°24'0 0.0
2018-Apr-15 12:59N 34°31' E 135°24'0 0.0
2018-Apr-15 12:29N 34°31' E 135°24'0 0.0
2018-Apr-15 11:59N 34°31' E 135°24'0 0.0
2018-Apr-15 11:29N 34°31' E 135°24'0 0.0
2018-Apr-15 10:59N 34°31' E 135°24'0 0.0
2018-Apr-15 10:29N 34°31' E 135°24'0 0.0
2018-Apr-15 09:59N 34°31' E 135°24'0 0.0
2018-Apr-15 09:29N 34°31' E 135°24'0 0.0
2018-Apr-15 08:59N 34°31' E 135°24'0 0.0
2018-Apr-15 08:29N 34°31' E 135°24'0 0.0
2018-Apr-15 07:59N 34°31' E 135°24'0 0.0
2018-Apr-15 07:29N 34°31' E 135°24'0 0.0
2018-Apr-15 06:59N 34°31' E 135°24'0 0.0
2018-Apr-15 06:29N 34°31' E 135°24'0 0.0
2018-Apr-15 05:59N 34°31' E 135°24'0 0.0
2018-Apr-15 05:29N 34°31' E 135°24'0 0.0
2018-Apr-15 04:59N 34°31' E 135°24'0 0.0
2018-Apr-15 04:29N 34°31' E 135°24'0 0.0
2018-Apr-15 03:59N 34°31' E 135°24'0 0.0
2018-Apr-15 03:29N 34°31' E 135°24'0 0.0
2018-Apr-15 02:59N 34°31' E 135°24'0 0.0
2018-Apr-15 02:29N 34°31' E 135°24'0 0.0
2018-Apr-15 01:59N 34°31' E 135°24'0 0.0
2018-Apr-15 01:29N 34°31' E 135°24'0 0.0
2018-Apr-15 00:59N 34°31' E 135°24'0 0.0
2018-Apr-15 00:29N 34°31' E 135°24'0 0.0
2018-Apr-14 23:59N 34°31' E 135°24'0 0.0
2018-Apr-14 23:29N 34°31' E 135°24'0 0.0
2018-Apr-14 22:59N 34°31' E 135°24'0 0.0
2018-Apr-14 22:29N 34°31' E 135°24'0 0.2
2018-Apr-14 22:00N 34°31' E 135°24'1 0.9
2018-Apr-14 21:25N 34°31' E 135°24'0 0.0
2018-Apr-14 20:58N 34°31' E 135°24'0 0.0
2018-Apr-14 20:28N 34°31' E 135°24'0 0.0
2018-Apr-14 19:55N 34°31' E 135°24'0 0.0
2018-Apr-14 19:28N 34°31' E 135°24'0 0.0
2018-Apr-14 18:58N 34°31' E 135°24'2 3.5
2018-Apr-14 18:30N 34°32' E 135°23'510.5
2018-Apr-14 18:00N 34°33' E 135°17'610.2
2018-Apr-14 17:28N 34°35' E 135°10'511.1
2018-Apr-14 17:00N 34°35' E 135°04'511.1
2018-Apr-14 16:31N 34°36' E 134°57'712.7
2018-Apr-14 15:59N 34°33' E 134°50'511.1
2018-Apr-14 15:29N 34°31' E 134°44'510.9
2018-Apr-14 15:00N 34°29' E 134°38'99 8.8
2018-Apr-14 03:45N 34°06' E 132°42'3 9.2
2018-Apr-14 03:28N 34°05' E 132°39'15 9.2
2018-Apr-14 01:51N 34°08' E 132°21'410.6
2018-Apr-14 01:28N 34°11' E 132°18'3 6.5
2018-Apr-14 00:59N 34°13' E 132°15'0 0.0
2018-Apr-14 00:28N 34°13' E 132°15'0 0.0
2018-Apr-13 23:59N 34°13' E 132°15'0 0.0
2018-Apr-13 23:29N 34°13' E 132°15'  
Track history (hours):
 
Tides and Currents Weather Stations Pressure Air Temp Water Temp Dewpoint Dewpoint Depression Visibility Wind Speed Wind Dir Waves Ship Positions

Kouwamaru

Last reported at 2018-Apr-23 23:02 UTC. Time now 2018-Jun-25 13:55 UTC.
Position N 33°38' E 132°21'.
Warning: this ship's position is months out of date.

Length 54 m.

Type: Ship. MMSI: 431100411.

Date/timePositionNaut miles runAvg speedWind from/ knotsBaromVisibWave heightAir tempDewpointWater temp
2018-Apr-23 23:02N 33°38' E 132°21'2 9.9
2018-Apr-23 22:50N 33°37' E 132°19'22 0.9
2018-Apr-22 22:06N 33°49' E 132°41'1 8.9
2018-Apr-22 22:00N 33°48' E 132°40'3 0.2
2018-Apr-22 07:19N 33°46' E 132°41'5210.1
2018-Apr-22 02:09N 33°20' E 131°46'4 9.7
2018-Apr-22 01:45N 33°18' E 131°42'3 0.8
2018-Apr-21 22:20N 33°16' E 131°40'2 6.0
2018-Apr-21 21:58N 33°18' E 131°41'5 9.7
2018-Apr-21 21:30N 33°21' E 131°45'611.1
2018-Apr-21 21:00N 33°24' E 131°51'710.9
2018-Apr-21 20:23N 33°28' E 131°57'4211.0
2018-Apr-21 16:35N 33°54' E 132°37'4 9.3
2018-Apr-21 16:08N 33°56' E 132°41'1 8.4
2018-Apr-21 15:59N 33°57' E 132°42'93 9.3
2018-Apr-21 05:59N 34°28' E 134°28'510.5
2018-Apr-21 05:28N 34°30' E 134°34'510.7
2018-Apr-21 05:00N 34°32' E 134°40'611.1
2018-Apr-21 04:29N 34°34' E 134°47'611.8
2018-Apr-21 04:00N 34°36' E 134°53'611.8
2018-Apr-21 03:30N 34°38' E 134°60'611.2
2018-Apr-21 03:00N 34°37' E 135°06'611.2
2018-Apr-21 02:30N 34°37' E 135°13'510.9
2018-Apr-21 02:00N 34°39' E 135°19'5 9.9
2018-Apr-21 01:30N 34°39' E 135°26'1 2.2
2018-Apr-21 00:59N 34°40' E 135°27'0 0.0
2018-Apr-21 00:29N 34°40' E 135°27'0 0.0
2018-Apr-20 23:59N 34°40' E 135°27'0 0.0
2018-Apr-20 23:29N 34°40' E 135°27'0 0.0
2018-Apr-20 22:59N 34°40' E 135°27'1 1.1
2018-Apr-20 22:30N 34°40' E 135°26'4 7.6
2018-Apr-20 22:00N 34°39' E 135°22'0 0.3
2018-Apr-20 21:30N 34°39' E 135°21'0 0.0
2018-Apr-20 21:00N 34°39' E 135°21'0 0.0
2018-Apr-20 20:30N 34°39' E 135°21'0 0.0
2018-Apr-20 20:00N 34°39' E 135°21'0 0.0
2018-Apr-20 19:30N 34°39' E 135°21'0 0.0
2018-Apr-20 19:00N 34°39' E 135°21'0 0.0
2018-Apr-20 18:30N 34°39' E 135°21'0 0.0
2018-Apr-20 18:00N 34°39' E 135°21'0 0.0
2018-Apr-20 17:30N 34°39' E 135°21'0 0.0
2018-Apr-20 17:00N 34°39' E 135°21'1 2.0
2018-Apr-20 16:29N 34°38' E 135°21'510.0
2018-Apr-20 16:00N 34°34' E 135°18'510.1
2018-Apr-20 15:30N 34°30' E 135°14'510.9
2018-Apr-20 15:00N 34°26' E 135°10'510.9
2018-Apr-20 14:30N 34°21' E 135°06'510.9
2018-Apr-20 14:00N 34°16' E 135°03'510.9
2018-Apr-20 13:30N 34°11' E 135°03'610.8
2018-Apr-20 12:58N 34°05' E 135°03'610.7
2018-Apr-20 12:24N 33°59' E 135°03'227 8.5
2018-Apr-19 09:47N 35°01' E 139°28'4 8.5
2018-Apr-19 09:19N 35°03' E 139°32'3 9.5
2018-Apr-19 09:00N 35°05' E 139°35'510.3
2018-Apr-19 08:30N 35°07' E 139°41'5 9.8
2018-Apr-19 08:00N 35°11' E 139°45'4 8.5
2018-Apr-19 07:30N 35°15' E 139°46'4 8.8
2018-Apr-19 07:00N 35°19' E 139°43'5 8.6
2018-Apr-19 06:29N 35°23' E 139°42'4 8.7
2018-Apr-19 06:00N 35°26' E 139°46'5 9.1
2018-Apr-19 05:30N 35°29' E 139°51'5 9.4
2018-Apr-19 04:57N 35°31' E 139°56'5 9.8
2018-Apr-19 04:29N 35°33' E 140°01'3 0.9
2018-Apr-19 00:54N 35°32' E 140°05'3 7.7
2018-Apr-19 00:30N 35°35' E 140°05'1 2.4
2018-Apr-18 23:58N 35°36' E 140°06'0 0.0
2018-Apr-18 23:28N 35°36' E 140°06'0 0.0
2018-Apr-18 22:58N 35°36' E 140°06'0 0.0
2018-Apr-18 22:28N 35°36' E 140°06'0 0.0
2018-Apr-18 21:58N 35°36' E 140°06'0 0.0
2018-Apr-18 21:28N 35°36' E 140°06'0 0.0
2018-Apr-18 20:58N 35°36' E 140°06'0 0.0
2018-Apr-18 20:28N 35°36' E 140°06'0 0.0
2018-Apr-18 19:58N 35°36' E 140°06'0 0.0
2018-Apr-18 19:28N 35°36' E 140°06'0 0.0
2018-Apr-18 18:58N 35°36' E 140°06'0 0.0
2018-Apr-18 18:28N 35°36' E 140°06'0 0.0
2018-Apr-18 17:58N 35°36' E 140°06'0 0.0
2018-Apr-18 17:22N 35°36' E 140°06'0 0.0
2018-Apr-18 16:58N 35°36' E 140°06'0 0.0
2018-Apr-18 16:28N 35°36' E 140°06'0 0.0
2018-Apr-18 15:58N 35°36' E 140°06'0 0.0
2018-Apr-18 15:28N 35°36' E 140°06'0 0.0
2018-Apr-18 14:58N 35°36' E 140°06'0 0.0
2018-Apr-18 14:28N 35°36' E 140°06'0 0.0
2018-Apr-18 13:58N 35°36' E 140°06'0 0.0
2018-Apr-18 13:28N 35°36' E 140°06'0 0.0
2018-Apr-18 12:58N 35°36' E 140°06'0 0.0
2018-Apr-18 12:28N 35°36' E 140°06'0 0.0
2018-Apr-18 11:55N 35°36' E 140°06'0 0.0
2018-Apr-18 11:28N 35°36' E 140°06'0 0.0
2018-Apr-18 10:58N 35°36' E 140°06'0 0.0
2018-Apr-18 10:28N 35°36' E 140°06'0 0.0
2018-Apr-18 09:58N 35°36' E 140°06'0 0.0
2018-Apr-18 09:28N 35°36' E 140°06'0 0.0
2018-Apr-18 08:58N 35°36' E 140°06'0 0.0
2018-Apr-18 08:28N 35°36' E 140°06'0 0.0
2018-Apr-18 07:58N 35°36' E 140°06'0 0.0
2018-Apr-18 07:28N 35°36' E 140°06'0 0.0
2018-Apr-18 06:58N 35°36' E 140°06'0 0.0
2018-Apr-18 06:28N 35°36' E 140°06'0 0.0
2018-Apr-18 05:58N 35°36' E 140°06'0 0.0
2018-Apr-18 05:28N 35°36' E 140°06'0 0.0
2018-Apr-18 04:58N 35°36' E 140°06'0 0.0
2018-Apr-18 04:28N 35°36' E 140°06'0 0.0
2018-Apr-18 03:58N 35°36' E 140°06'0 0.0
2018-Apr-18 03:28N 35°36' E 140°06'1 2.6
2018-Apr-18 02:59N 35°35' E 140°05'7 9.5
2018-Apr-18 02:17N 35°30' E 140°00'1 2.1
2018-Apr-18 01:39N 35°29' E 140°01'0 0.0
2018-Apr-18 01:30N 35°29' E 140°01'0 0.0
2018-Apr-17 23:27N 35°29' E 140°01'3 6.5
2018-Apr-17 23:00N 35°30' E 139°58'2 3.3
2018-Apr-17 22:16N 35°29' E 139°55'0 0.0
2018-Apr-17 21:55N 35°29' E 139°55'0 0.0
2018-Apr-17 21:22N 35°29' E 139°55'0 0.0
2018-Apr-17 20:58N 35°29' E 139°55'0 0.1
2018-Apr-17 20:25N 35°29' E 139°55'0 0.1
2018-Apr-17 20:01N 35°29' E 139°55'0 0.0
2018-Apr-17 19:28N 35°29' E 139°55'0 0.0
2018-Apr-17 18:58N 35°29' E 139°55'0 0.0
2018-Apr-17 18:31N 35°29' E 139°55'0 0.0
2018-Apr-17 17:58N 35°29' E 139°55'0 0.0
2018-Apr-17 17:28N 35°29' E 139°55'0 0.0
2018-Apr-17 17:01N 35°29' E 139°55'0 0.0
2018-Apr-17 16:31N 35°29' E 139°55'2 4.1
2018-Apr-17 16:01N 35°29' E 139°52'5 9.6
2018-Apr-17 15:30N 35°25' E 139°48'5 9.3
2018-Apr-17 15:00N 35°21' E 139°45'4 8.8
2018-Apr-17 14:31N 35°17' E 139°46'4 8.5
2018-Apr-17 14:00N 35°13' E 139°47'4 8.9
2018-Apr-17 13:30N 35°08' E 139°45'6 9.7
2018-Apr-17 12:52N 35°04' E 139°40'239 8.0
2018-Apr-16 07:10N 33°57' E 135°02'210.6
2018-Apr-16 06:59N 33°59' E 135°02'510.7
2018-Apr-16 06:30N 34°04' E 135°02'610.9
2018-Apr-16 05:59N 34°09' E 135°03'511.0
2018-Apr-16 05:30N 34°15' E 135°03'611.4
2018-Apr-16 05:01N 34°20' E 135°05'611.1
2018-Apr-16 04:31N 34°24' E 135°09'510.8
2018-Apr-16 04:00N 34°28' E 135°13'510.3
2018-Apr-16 03:30N 34°32' E 135°18'510.5
2018-Apr-16 02:59N 34°36' E 135°22'3 6.7
2018-Apr-16 02:30N 34°34' E 135°25'0 0.0
2018-Apr-16 02:00N 34°34' E 135°25'0 0.0
2018-Apr-16 01:30N 34°34' E 135°25'0 0.0
2018-Apr-16 01:00N 34°34' E 135°25'0 0.0
2018-Apr-16 00:30N 34°34' E 135°25'0 0.0
2018-Apr-16 00:00N 34°34' E 135°25'0 0.0
2018-Apr-15 23:30N 34°34' E 135°25'0 0.5
2018-Apr-15 22:58N 34°34' E 135°25'0 0.7
2018-Apr-15 22:28N 34°35' E 135°25'1 3.0
2018-Apr-15 22:00N 34°35' E 135°24'5 9.3
2018-Apr-15 21:30N 34°31' E 135°24'0 0.2
2018-Apr-15 20:59N 34°31' E 135°24'0 0.0
2018-Apr-15 20:29N 34°31' E 135°24'0 0.0
2018-Apr-15 19:59N 34°31' E 135°24'0 0.0
2018-Apr-15 19:29N 34°31' E 135°24'0 0.0
2018-Apr-15 18:59N 34°31' E 135°24'0 0.0
2018-Apr-15 18:29N 34°31' E 135°24'0 0.0
2018-Apr-15 17:59N 34°31' E 135°24'0 0.0
2018-Apr-15 17:29N 34°31' E 135°24'0 0.0
2018-Apr-15 16:59N 34°31' E 135°24'0 0.0
2018-Apr-15 16:29N 34°31' E 135°24'0 0.0
2018-Apr-15 15:59N 34°31' E 135°24'0 0.0
2018-Apr-15 15:29N 34°31' E 135°24'0 0.0
2018-Apr-15 14:59N 34°31' E 135°24'0 0.0
2018-Apr-15 14:29N 34°31' E 135°24'0 0.0
2018-Apr-15 13:59N 34°31' E 135°24'0 0.0
2018-Apr-15 13:29N 34°31' E 135°24'0 0.0
2018-Apr-15 12:59N 34°31' E 135°24'0 0.0
2018-Apr-15 12:29N 34°31' E 135°24'0 0.0
2018-Apr-15 11:59N 34°31' E 135°24'0 0.0
2018-Apr-15 11:29N 34°31' E 135°24'0 0.0
2018-Apr-15 10:59N 34°31' E 135°24'0 0.0
2018-Apr-15 10:29N 34°31' E 135°24'0 0.0
2018-Apr-15 09:59N 34°31' E 135°24'0 0.0
2018-Apr-15 09:29N 34°31' E 135°24'0 0.0
2018-Apr-15 08:59N 34°31' E 135°24'0 0.0
2018-Apr-15 08:29N 34°31' E 135°24'0 0.0
2018-Apr-15 07:59N 34°31' E 135°24'0 0.0
2018-Apr-15 07:29N 34°31' E 135°24'0 0.0
2018-Apr-15 06:59N 34°31' E 135°24'0 0.0
2018-Apr-15 06:29N 34°31' E 135°24'0 0.0
2018-Apr-15 05:59N 34°31' E 135°24'0 0.0
2018-Apr-15 05:29N 34°31' E 135°24'0 0.0
2018-Apr-15 04:59N 34°31' E 135°24'0 0.0
2018-Apr-15 04:29N 34°31' E 135°24'0 0.0
2018-Apr-15 03:59N 34°31' E 135°24'0 0.0
2018-Apr-15 03:29N 34°31' E 135°24'0 0.0
2018-Apr-15 02:59N 34°31' E 135°24'0 0.0
2018-Apr-15 02:29N 34°31' E 135°24'0 0.0
2018-Apr-15 01:59N 34°31' E 135°24'0 0.0
2018-Apr-15 01:29N 34°31' E 135°24'0 0.0
2018-Apr-15 00:59N 34°31' E 135°24'0 0.0
2018-Apr-15 00:29N 34°31' E 135°24'0 0.0
2018-Apr-14 23:59N 34°31' E 135°24'0 0.0
2018-Apr-14 23:29N 34°31' E 135°24'0 0.0
2018-Apr-14 22:59N 34°31' E 135°24'0 0.0
2018-Apr-14 22:29N 34°31' E 135°24'0 0.2
2018-Apr-14 22:00N 34°31' E 135°24'1 0.9
2018-Apr-14 21:25N 34°31' E 135°24'0 0.0
2018-Apr-14 20:58N 34°31' E 135°24'0 0.0
2018-Apr-14 20:28N 34°31' E 135°24'0 0.0
2018-Apr-14 19:55N 34°31' E 135°24'0 0.0
2018-Apr-14 19:28N 34°31' E 135°24'0 0.0
2018-Apr-14 18:58N 34°31' E 135°24'2 3.5
2018-Apr-14 18:30N 34°32' E 135°23'510.5
2018-Apr-14 18:00N 34°33' E 135°17'610.2
2018-Apr-14 17:28N 34°35' E 135°10'511.1
2018-Apr-14 17:00N 34°35' E 135°04'511.1
2018-Apr-14 16:31N 34°36' E 134°57'712.7
2018-Apr-14 15:59N 34°33' E 134°50'511.1
2018-Apr-14 15:29N 34°31' E 134°44'510.9
2018-Apr-14 15:00N 34°29' E 134°38'99 8.8
2018-Apr-14 03:45N 34°06' E 132°42'3 9.2
2018-Apr-14 03:28N 34°05' E 132°39'15 9.2
2018-Apr-14 01:51N 34°08' E 132°21'410.6
2018-Apr-14 01:28N 34°11' E 132°18'3 6.5
2018-Apr-14 00:59N 34°13' E 132°15'0 0.0
2018-Apr-14 00:28N 34°13' E 132°15'0 0.0
2018-Apr-13 23:59N 34°13' E 132°15'0 0.0
2018-Apr-13 23:29N 34°13' E 132°15'  

Dump ship's entire track history